Latest Coastal Weather Observations for Low Head

IDV60701

Issued at 8:51 pm EST Monday 3 August 2015 (issued every 10 minutes, with the page automatically refreshed every 10 minutes)

About coastal observations | Map of coastal stations | Coastal observations for VIC | Marine services | Other Formats
Station Details ID: 091293 Name: LOW HEAD Lat: -41.05 Lon: 146.79 Height: 3.0 m
Data from the previous 72 hours. | See also: Recent months at Low Head
Date/Time
EST
Temp

°C
Wind Pressure Rain
since 9am
mm
Weather Cloud Vis
km
Sea
Height
m
Swell
Dir
 
Speed
knots
Gust
knots
hPa Trend Height
m
Period
s
Dir
03/08:30pm 6.7 WSW 18 22 1018.1 - 0.4 - - - - - - -
03/08:00pm 7.0 WSW 18 22 1017.7 - 0.4 - - - - - - -
03/07:30pm 7.4 WSW 21 27 1016.8 - 0.4 - - - - - - -
03/07:00pm 7.6 WSW 19 24 1016.1 - 0.4 - - - - - - -
03/06:30pm 7.4 WSW 20 25 1015.5 - 0.4 - - - - - - -
03/06:00pm 7.2 WSW 19 24 1014.8 - 0.4 - - - - - - -
03/05:30pm 7.2 WSW 16 19 1014.5 - 0.4 - - - - - - -
03/05:00pm 7.1 WSW 20 24 1013.9 - 0.4 - - - - - - -
03/04:30pm 7.8 WSW 17 20 1013.4 - 0.4 - - - - - - -
03/04:00pm 8.0 WSW 23 28 1012.9 - 0.4 - - - - - - -
03/03:30pm 8.0 W 21 25 1011.9 - 0.4 - - - - - - -
03/03:00pm 8.0 WSW 27 33 1011.4 - 0.4 - - - - - - -
03/02:30pm 7.5 W 25 29 1010.8 - 0.4 - - - - - - -
03/02:00pm 6.8 WSW 28 32 1010.0 - 0.4 - - - - - - -
03/01:30pm 6.6 WSW 28 39 1009.7 - 0.4 - - - - - - -
03/01:00pm 5.1 WSW 25 29 1009.8 - 0.4 - - - - - - -
03/12:30pm 5.4 WSW 29 37 1010.0 - 0.4 - - - - - - -
03/12:14pm 6.4 WSW 26 41 1009.5 - 0.0 - - - - - - -
03/12:00pm 6.7 WSW 26 32 1009.2 - 0.0 - - - - - - -
03/11:30am 6.5 WSW 27 32 1008.6 - 0.0 - - - - - - -
03/11:00am 6.6 W 27 33 1008.6 - 0.0 - - - - - - -
03/10:30am 5.7 W 26 31 1007.7 - 0.0 - - - - - - -
03/10:17am 5.3 WSW 29 39 1007.5 - 0.0 - - - - - - -
03/10:00am 5.7 WSW 27 33 1006.9 - 0.0 - - - - - - -
03/09:30am 6.1 W 28 33 1006.9 - 0.0 - - - - - - -
03/09:00am 5.2 W 23 27 1006.3 - 3.4 - - - - - - -
03/08:30am 4.4 W 30 35 1005.3 - 3.4 - - - - - - -
03/08:00am 5.7 W 29 34 1005.0 - 3.4 - - - - - - -
03/07:30am 5.1 WSW 26 32 1004.2 - 3.4 - - - - - - -
03/07:00am 5.5 W 28 33 1003.6 - 3.4 - - - - - - -
03/06:30am 5.6 WSW 27 34 1002.8 - 3.4 - - - - - - -
03/06:24am 5.5 WSW 23 33 1002.6 - 3.4 - - - - - - -
03/06:00am 4.9 WSW 19 25 1002.4 - 3.4 - - - - - - -
03/05:30am 5.2 WSW 27 35 1001.5 - 3.4 - - - - - - -
03/05:11am 6.1 W 31 42 1000.9 - 3.4 - - - - - - -
03/05:00am 6.2 W 27 35 1000.9 - 3.4 - - - - - - -
03/04:30am 6.3 W 26 31 1000.1 - 3.4 - - - - - - -
03/04:00am 5.7 W 27 33 999.9 - 3.4 - - - - - - -
03/03:30am 6.8 W 31 42 1000.0 - 3.4 - - - - - - -
03/03:28am 6.4 W 29 42 1000.2 - 3.4 - - - - - - -
03/03:27am 6.7 W 29 36 1000.2 - 3.4 - - - - - - -
03/03:00am 6.5 W 22 26 998.7 - 3.4 - - - - - - -
03/02:30am 6.9 W 28 34 999.8 - 3.4 - - - - - - -
03/02:00am 7.3 W 32 39 999.1 - 3.4 - - - - - - -
03/01:30am 7.3 W 27 33 999.1 - 3.4 - - - - - - -
03/01:00am 7.4 W 32 38 998.6 - 3.4 - - - - - - -
03/12:30am 7.6 W 33 42 998.9 - 3.4 - - - - - - -
03/12:23am 7.4 W 31 42 998.8 - 3.4 - - - - - - -
03/12:00am 7.4 W 32 40 998.9 - 3.4 Recent precip. - - - - - -
 
Date/Time
EST
Temp

°C
Wind Pressure Rain
since 9am
mm
Weather Cloud Vis
km
Sea
Height
m
Swell
Dir
 
Speed
knots
Gust
knots
hPa Trend Height
m
Period
s
Dir
02/11:48pm 7.3 W 37 47 999.1 - 3.4 - - - - - - -
02/11:38pm 6.6 W 32 48 999.2 - 3.4 - - - - - - -
02/11:36pm 8.0 W 30 43 999.2 - 3.2 - - - - - - -
02/11:30pm 8.4 W 29 36 999.2 - 3.2 - - - - - - -
02/11:00pm 8.1 W 34 41 998.8 - 3.2 - - - - - - -
02/10:30pm 7.8 WNW 29 39 999.3 - 3.2 - - - - - - -
02/10:29pm 8.0 WNW 28 39 999.3 - 3.2 - - - - - - -
02/10:00pm 7.9 W 24 29 999.9 - 3.2 - - - - - - -
02/09:47pm 7.6 W 21 27 1000.4 - 3.2 - - - - - - -
02/09:30pm 7.1 WSW 23 32 1000.3 - 3.2 - - - - - - -
02/09:24pm 7.5 WSW 26 36 1000.3 - 3.2 - - - - - - -
02/09:14pm 7.3 W 34 52 1000.1 - 3.2 - - - - - - -
02/09:08pm 8.0 WNW 29 52 1000.2 - 2.6 - - - - - - -
02/09:07pm 8.5 WNW 27 44 1000.2 - 2.6 - - - - - - -
02/09:05pm 9.1 WNW 23 39 1000.0 - 2.6 - - - - - - -
02/09:00pm 9.2 WNW 21 28 999.9 - 2.6 - - - - - - -
02/08:30pm 8.5 WNW 23 27 1000.9 - 2.6 - - - - - - -
02/08:00pm 8.4 WNW 26 31 1001.3 - 2.6 - - - - - - -
02/07:30pm 8.6 WNW 28 35 1001.5 - 2.6 - - - - - - -
02/07:00pm 8.3 WNW 31 36 1001.8 - 2.6 - - - - - - -
02/06:30pm 8.3 WNW 28 35 1001.1 - 2.6 - - - - - - -
02/06:00pm 8.4 W 28 34 1001.0 - 2.6 - - - - - - -
02/05:48pm 7.7 W 28 38 1001.1 - 2.6 - - - - - - -
02/05:30pm 8.3 W 32 41 1001.0 - 2.6 - - - - - - -
02/05:26pm 8.6 W 27 39 1001.0 - 2.6 - - - - - - -
02/05:00pm 8.2 WNW 27 32 1000.5 - 2.6 - - - - - - -
02/04:30pm 8.5 WNW 24 31 1000.4 - 2.6 - - - - - - -
02/04:00pm 8.7 W 30 38 1000.3 - 2.6 - - - - - - -
02/03:30pm 9.1 W 27 31 999.9 - 2.6 - - - - - - -
02/03:00pm 9.1 W 27 31 999.4 - 2.6 - - - - - - -
02/02:30pm 8.9 WSW 32 39 998.7 - 2.6 - - - - - - -
02/02:15pm 9.3 W 30 37 998.2 - 2.6 - - - - - - -
02/02:00pm 9.1 WNW 29 38 997.9 - 2.6 - - - - - - -
02/01:50pm 8.4 WNW 36 46 998.1 - 2.6 - - - - - - -
02/01:41pm 8.5 WNW 41 54 998.6 - 2.0 - - - - - - -
02/01:38pm 8.4 WNW 39 54 998.7 - 1.8 - - - - - - -
02/01:35pm 9.4 NW 35 54 998.6 - 1.6 - - - - - - -
02/01:31pm 10.5 NW 31 41 998.3 - 0.6 - - - - - - -
02/01:30pm 10.5 NW 31 40 998.1 - 0.6 - - - - - - -
02/01:10pm 10.7 NW 31 46 998.5 - 0.4 - - - - - - -
02/01:00pm 10.7 NW 32 41 998.7 - 0.4 - - - - - - -
02/12:38pm 11.3 NW 31 41 999.6 - 0.0 - - - - - - -
02/12:30pm 11.5 NW 31 37 999.7 - 0.0 - - - - - - -
02/12:03pm 11.3 NW 29 40 1000.6 - 0.0 - - - - - - -
02/12:00pm 11.5 NW 29 37 1000.7 - 0.0 - - - - - - -
02/11:30am 11.4 NW 25 30 1001.7 - 0.0 - - - - - - -
02/11:00am 10.5 NW 29 40 1002.7 - 0.0 - - - - - - -
02/10:35am 11.7 NW 27 37 1003.0 - 0.0 - - - - - - -
02/10:30am 11.4 NW 29 37 1003.2 - 0.0 - - - - - - -
02/10:27am 11.4 NW 27 37 1003.2 - 0.0 - - - - - - -
02/10:00am 11.1 NW 23 29 1003.9 - 0.0 - - - - - - -
02/09:30am 10.3 NW 26 32 1004.5 - 0.0 - - - - - - -
02/09:00am 10.6 WNW 25 30 1005.0 - 1.2 Recent precip. - - - - - -
02/08:30am 9.0 WNW 27 33 1005.4 - 1.2 - - - - - - -
02/08:18am 10.4 NW 22 37 1005.4 - 0.8 - - - - - - -
02/08:00am 9.9 WNW 23 29 1005.4 - 0.8 - - - - - - -
02/07:30am 9.9 WNW 23 27 1005.8 - 0.8 - - - - - - -
02/07:07am 9.6 NW 23 35 1006.1 - 0.6 - - - - - - -
02/07:00am 9.9 NW 22 28 1005.9 - 0.6 - - - - - - -
02/06:34am 9.7 NW 25 40 1006.2 - 0.4 - - - - - - -
02/06:30am 9.8 NW 23 29 1006.2 - 0.4 - - - - - - -
02/06:00am 9.6 WNW 20 27 1006.5 - 0.4 - - - - - - -
02/05:30am 9.8 WNW 24 31 1006.8 - 0.4 - - - - - - -
02/05:00am 9.3 WNW 23 30 1007.1 - 0.4 - - - - - - -
02/04:30am 9.7 WNW 24 28 1007.4 - 0.2 - - - - - - -
02/04:00am 9.3 WNW 23 31 1007.8 - 0.2 - - - - - - -
02/03:51am 9.9 WNW 19 31 1008.1 - 0.2 - - - - - - -
02/03:30am 9.5 WNW 20 23 1008.2 - 0.0 - - - - - - -
02/03:00am 9.6 WNW 22 27 1008.7 - 0.0 - - - - - - -
02/02:30am 9.4 WNW 19 23 1009.0 - 0.0 - - - - - - -
02/02:00am 9.6 WNW 19 22 1009.3 - 0.0 - - - - - - -
02/01:30am 9.4 WNW 19 24 1009.7 - 0.0 - - - - - - -
02/01:00am 9.2 WNW 19 24 1009.8 - 0.0 - - - - - - -
02/12:30am 9.0 W 21 25 1010.0 - 0.0 - - - - - - -
02/12:00am 9.9 WNW 24 29 1010.1 - 0.0 - - - - - - -
 
Date/Time
EST
Temp

°C
Wind Pressure Rain
since 9am
mm
Weather Cloud Vis
km
Sea
Height
m
Swell
Dir
 
Speed
knots
Gust
knots
hPa Trend Height
m
Period
s
Dir
01/11:30pm 9.8 WNW 24 28 1010.3 - 0.0 - - - - - - -
01/11:00pm 9.7 WNW 23 27 1010.4 - 0.0 - - - - - - -
01/10:30pm 9.5 WNW 21 26 1010.7 - 0.0 - - - - - - -
01/10:00pm 9.6 WNW 22 27 1011.0 - 0.0 - - - - - - -
01/09:30pm 9.3 WNW 20 24 1011.1 - 0.0 - - - - - - -
01/09:00pm 9.3 W 22 26 1011.3 - 0.0 - - - - - - -
01/08:30pm 9.3 W 19 23 1011.5 - 0.0 - - - - - - -
01/08:00pm 9.5 W 18 22 1011.2 - 0.0 - - - - - - -
01/07:30pm 9.5 WNW 21 26 1011.1 - 0.0 - - - - - - -
01/07:00pm 9.4 W 23 27 1010.6 - 0.0 - - - - - - -
01/06:30pm 9.3 W 23 27 1010.5 - 0.0 - - - - - - -
01/06:00pm 9.0 WNW 23 28 1010.0 - 0.0 - - - - - - -
01/05:30pm 9.2 W 25 29 1009.8 - 0.0 - - - - - - -
01/05:00pm 9.4 W 21 25 1009.4 - 0.0 - - - - - - -
01/04:30pm 9.2 WNW 19 23 1009.2 - 0.0 - - - - - - -
01/04:00pm 9.6 W 18 21 1009.1 - 0.0 - - - - - - -
01/03:30pm 9.5 W 22 26 1008.6 - 0.0 - - - - - - -
01/03:00pm 9.9 WNW 22 26 1008.6 - 0.0 - - - - - - -
01/02:30pm 9.7 WNW 20 26 1008.3 - 0.0 - - - - - - -
01/02:00pm 9.2 W 15 17 1008.3 - 0.0 - - - - - - -
01/01:30pm 9.3 SW 18 23 1007.9 - 0.0 - - - - - - -
01/01:22pm 9.8 WSW 23 28 1007.6 - 0.0 - - - - - - -
01/01:00pm 10.0 W 20 26 1007.7 - 0.0 - - - - - - -
01/12:30pm 9.8 W 23 28 1007.5 - 0.0 - - - - - - -
01/12:00pm 9.9 W 24 28 1007.2 - 0.0 - - - - - - -
01/11:30am 9.7 W 24 29 1007.5 - 0.0 - - - - - - -
01/11:00am 9.2 W 23 26 1007.3 - 0.0 - - - - - - -
01/10:30am 9.4 W 25 30 1006.7 - 0.0 - - - - - - -
01/10:00am 9.0 W 26 31 1005.9 - 0.0 - - - - - - -
01/09:30am 9.1 W 24 28 1005.1 - 0.0 - - - - - - -
01/09:00am 9.4 WSW 27 35 1004.5 - 7.0 - - - - - - -
01/08:59am 9.2 WSW 28 35 1004.4 - 7.0 - - - - - - -
01/08:30am 9.6 WNW 26 31 1003.8 - 7.0 - - - - - - -
01/08:00am 9.5 WNW 26 33 1003.0 - 7.0 - - - - - - -
01/07:30am 8.9 WNW 26 31 1002.5 - 7.0 - - - - - - -
01/07:00am 9.0 W 29 34 1002.1 - 6.8 - - - - - - -
01/06:30am 9.4 WNW 25 31 1001.4 - 6.2 - - - - - - -
01/06:00am 10.1 NW 29 36 1001.0 - 5.4 Rain - - - - - -
01/05:30am 10.5 NNW 30 40 1000.7 - 3.6 - - - - - - -
01/05:12am 10.4 NNW 29 39 1000.9 - 3.4 - - - - - - -
01/05:00am 10.4 NNW 29 38 1001.2 - 3.4 - - - - - - -
01/04:30am 10.2 NNW 31 39 1001.8 - 2.8 - - - - - - -
01/04:02am 10.5 NNW 28 39 1002.3 - 2.4 - - - - - - -
01/04:00am 10.6 NNW 27 35 1002.4 - 2.4 - - - - - - -
01/03:31am 10.4 NNW 27 38 1003.2 - 1.8 - - - - - - -
01/03:30am 10.4 NNW 27 33 1003.2 - 1.8 - - - - - - -
01/03:00am 10.3 NNW 29 37 1004.1 - 1.4 Recent precip. - - - - - -
01/02:30am 10.4 NNW 30 38 1005.0 - 0.8 - - - - - - -
01/02:21am 10.6 NNW 28 38 1005.3 - 0.6 - - - - - - -
01/02:00am 10.9 NNW 27 34 1005.5 - 0.4 - - - - - - -
01/01:30am 11.1 NNW 28 34 1006.5 - 0.4 - - - - - - -
01/01:00am 10.6 NNW 28 35 1006.8 - 0.4 - - - - - - -
01/12:30am 10.9 NNW 26 32 1007.9 - 0.4 - - - - - - -
01/12:00am 10.9 NNW 22 27 1008.6 - 0.4 - - - - - - -
 
Date/Time
EST
Temp

°C
Wind Pressure Rain
since 9am
mm
Weather Cloud Vis
km
Sea
Height
m
Swell
Dir
 
Speed
knots
Gust
knots
hPa Trend Height
m
Period
s
Dir
31/11:30pm 10.5 NNW 22 26 1009.3 - 0.4 - - - - - - -
31/11:00pm 10.4 NNW 22 26 1010.5 - 0.4 - - - - - - -
31/10:30pm 10.3 NNW 22 27 1010.5 - 0.4 - - - - - - -
31/10:00pm 10.4 NNW 22 27 1010.9 - 0.4 - - - - - - -
31/09:30pm 10.5 NNW 23 28 1011.4 - 0.4 - - - - - - -
31/09:00pm 10.7 NNW 23 27 1011.6 - 0.4 - - - - - - -

Other Formats:

Comma delimited format used in spreadsheet applications
http://www.bom.gov.au/fwo/IDV60701/IDV60701.95964.axf

JavaScript Object Notation format (JSON) in row-major order
http://www.bom.gov.au/fwo/IDV60701/IDV60701.95964.json